Time;durP1;ratioP1;P1;durP2;ratioP2;P2;SDS_P1;SDS_P2;PMS_P1;PMS_P2;Temp;Humidity;BMP_temperature;BMP_pressure;BME280_temperature;BME280_humidity;BME280_pressure;Samples;Min_cycle;Max_cycle;Signal;HPM_P1;HPM_P2
2023/07/17 00:00:28;;;;;;;3.10;2.90;;;;;;;21.87;100.00;96533.31;5050513;27;101846;-62
2023/07/17 00:02:56;;;;;;;4.17;3.87;;;;;;;21.84;100.00;96531.25;5050098;27;102774;-62
2023/07/17 00:05:24;;;;;;;3.90;3.60;;;;;;;21.82;100.00;96529.97;5049567;27;102601;-62
2023/07/17 00:07:51;;;;;;;4.13;3.43;;;;;;;21.83;100.00;96510.69;5050348;27;102107;-62
2023/07/17 00:10:18;;;;;;;4.20;3.90;;;;;;;21.83;100.00;96509.91;5048931;27;105536;-62
2023/07/17 00:12:45;;;;;;;4.00;3.70;;;;;;;21.75;100.00;96508.78;5048341;27;103774;-62
2023/07/17 00:15:12;;;;;;;4.93;4.53;;;;;;;21.73;100.00;96511.00;5052338;27;102064;-62
2023/07/17 00:17:39;;;;;;;4.80;4.30;;;;;;;21.57;100.00;96509.06;5049628;27;102459;-62
2023/07/17 00:20:10;;;;;;;5.00;4.60;;;;;;;21.55;100.00;96522.09;5050178;27;102012;-62
2023/07/17 00:22:39;;;;;;;5.50;5.00;;;;;;;21.28;100.00;96525.06;5050163;27;102319;-62
2023/07/17 00:25:06;;;;;;;5.80;5.30;;;;;;;21.09;100.00;96538.06;5048009;27;103792;-62
2023/07/17 00:27:35;;;;;;;5.87;5.17;;;;;;;21.17;100.00;96542.69;5048690;27;102065;-62
2023/07/17 00:30:02;;;;;;;5.63;5.00;;;;;;;21.03;100.00;96544.72;5048632;27;105115;-62
2023/07/17 00:32:29;;;;;;;5.43;4.93;;;;;;;20.94;100.00;96552.81;5048006;27;105103;-62
2023/07/17 00:34:56;;;;;;;6.27;5.77;;;;;;;21.00;100.00;96553.44;5051885;27;101941;-62
2023/07/17 00:37:23;;;;;;;6.17;5.67;;;;;;;20.98;100.00;96558.38;5047824;27;105905;-62
2023/07/17 00:39:51;;;;;;;6.03;5.47;;;;;;;20.95;100.00;96561.69;5048456;27;101998;-62
2023/07/17 00:42:18;;;;;;;7.03;5.83;;;;;;;20.91;100.00;96563.44;5048495;27;105433;-62
2023/07/17 00:44:45;;;;;;;6.63;6.03;;;;;;;20.78;100.00;96569.69;5047577;27;105683;-61
2023/07/17 00:47:14;;;;;;;6.33;5.73;;;;;;;20.84;100.00;96568.47;5048431;27;101951;-62
2023/07/17 00:49:41;;;;;;;6.20;5.70;;;;;;;20.82;100.00;96570.69;5048339;27;105056;-62
2023/07/17 00:52:10;;;;;;;6.43;5.90;;;;;;;20.84;100.00;96569.25;5047910;27;104179;-62
2023/07/17 00:54:39;;;;;;;6.30;5.70;;;;;;;20.82;100.00;96570.69;5048238;27;101958;-62
2023/07/17 00:57:10;;;;;;;6.70;6.20;;;;;;;20.76;100.00;96566.53;5051149;27;104859;-62
2023/07/17 00:59:38;;;;;;;7.27;5.67;;;;;;;20.89;100.00;96561.06;5048223;27;101941;-62
2023/07/17 01:02:08;;;;;;;7.00;6.40;;;;;;;20.98;100.00;96552.97;5048289;27;103850;-62
2023/07/17 01:04:35;;;;;;;5.50;5.00;;;;;;;21.09;100.00;96544.25;5047485;27;105278;-62
2023/07/17 01:07:02;;;;;;;5.23;4.83;;;;;;;21.20;100.00;96539.38;5048103;27;101958;-62
2023/07/17 01:09:30;;;;;;;6.07;5.47;;;;;;;21.23;100.00;96533.31;5050453;27;102871;-61
2023/07/17 01:11:56;;;;;;;5.53;5.10;;;;;;;21.13;100.00;96544.44;5051078;27;105368;-62
2023/07/17 01:14:25;;;;;;;5.67;5.17;;;;;;;21.14;100.00;96552.22;5051830;27;101933;-62
2023/07/17 01:16:51;;;;;;;5.40;5.00;;;;;;;21.20;100.00;96548.28;5051726;27;104878;-62
2023/07/17 01:19:18;;;;;;;6.07;4.87;;;;;;;21.26;100.00;96551.66;5055714;27;102619;-62
2023/07/17 01:21:51;;;;;;;4.50;4.10;;;;;;;21.32;100.00;96544.97;5052959;27;102421;-62
2023/07/17 01:24:20;;;;;;;4.80;4.40;;;;;;;21.38;100.00;96546.44;5052600;27;102511;-62
2023/07/17 01:26:47;;;;;;;5.23;4.73;;;;;;;21.29;100.00;96542.88;5051471;27;101963;-62
2023/07/17 01:29:15;;;;;;;5.10;4.63;;;;;;;21.27;100.00;96539.72;5051332;27;105298;-62
2023/07/17 01:31:42;;;;;;;4.30;3.90;;;;;;;21.36;100.00;96544.03;5052026;27;102651;-62
2023/07/17 01:34:09;;;;;;;4.40;3.93;;;;;;;21.46;100.00;96551.84;5051260;27;102057;-62
2023/07/17 01:36:36;;;;;;;3.93;3.63;;;;;;;21.51;100.00;96546.28;5051474;27;105296;-62
2023/07/17 01:39:04;;;;;;;4.87;4.33;;;;;;;21.65;100.00;96543.47;5050301;27;105237;-62
2023/07/17 01:41:33;;;;;;;4.50;4.10;;;;;;;21.63;100.00;96540.28;5054646;27;101883;-62
2023/07/17 01:43:59;;;;;;;4.30;4.00;;;;;;;21.38;100.00;96541.81;5050279;27;105405;-62
2023/07/17 01:46:26;;;;;;;4.70;4.40;;;;;;;21.34;100.00;96545.44;5051023;27;102009;-62
2023/07/17 01:48:54;;;;;;;4.83;4.43;;;;;;;21.29;100.00;96548.28;5051008;27;105037;-62
2023/07/17 01:51:21;;;;;;;4.80;4.40;;;;;;;21.40;100.00;96549.59;5050320;27;105756;-62
2023/07/17 01:53:48;;;;;;;4.83;4.43;;;;;;;21.34;100.00;96540.84;5052417;27;102005;-62
2023/07/17 01:56:16;;;;;;;5.37;4.87;;;;;;;21.16;100.00;96541.09;5052275;27;102556;-62
2023/07/17 01:58:44;;;;;;;5.27;4.87;;;;;;;21.06;100.00;96544.09;5050604;27;105146;-62
2023/07/17 02:01:10;;;;;;;4.70;4.30;;;;;;;21.16;100.00;96549.22;5050834;27;102131;-62
2023/07/17 02:03:37;;;;;;;5.37;4.80;;;;;;;21.16;100.00;96539.22;5053625;27;104934;-62
2023/07/17 02:06:05;;;;;;;4.57;4.17;;;;;;;21.26;100.00;96544.31;5050845;27;101879;-62
2023/07/17 02:08:32;;;;;;;4.70;4.30;;;;;;;21.27;100.00;96535.09;5050735;27;105600;-62
2023/07/17 02:10:59;;;;;;;4.30;3.90;;;;;;;21.38;100.00;96546.44;5049929;27;106100;-62
2023/07/17 02:13:26;;;;;;;4.80;4.30;;;;;;;21.34;100.00;96538.16;5050673;27;101906;-62
2023/07/17 02:15:54;;;;;;;4.77;4.37;;;;;;;21.31;100.00;96535.28;5050495;27;105801;-62
2023/07/17 02:18:21;;;;;;;4.37;4.07;;;;;;;21.30;100.00;96541.81;5050138;27;105298;-62
2023/07/17 02:20:49;;;;;;;4.10;3.80;;;;;;;21.26;100.00;96547.00;5049367;27;101988;-62
2023/07/17 02:23:16;;;;;;;4.70;4.30;;;;;;;21.28;100.00;96546.72;5050420;27;105421;-62
2023/07/17 02:25:44;;;;;;;4.40;4.10;;;;;;;21.25;100.00;96552.75;5053343;27;105067;-62
2023/07/17 02:28:11;;;;;;;5.00;4.60;;;;;;;21.02;100.00;96541.22;5050620;27;105604;-63
2023/07/17 02:30:38;;;;;;;5.07;4.67;;;;;;;21.06;100.00;96538.69;5049752;27;103856;-63
2023/07/17 02:33:06;;;;;;;4.00;3.70;;;;;;;21.06;100.00;96536.78;5050390;27;101973;-63
2023/07/17 02:35:33;;;;;;;5.27;4.53;;;;;;;21.04;100.00;96530.88;5050502;27;105223;-62
2023/07/17 02:38:00;;;;;;;5.10;4.60;;;;;;;21.02;100.00;96521.47;5049171;27;105825;-62
2023/07/17 02:40:27;;;;;;;5.40;4.47;;;;;;;21.05;100.00;96526.28;5050397;27;101993;-62
2023/07/17 02:42:54;;;;;;;4.53;4.13;;;;;;;21.03;100.00;96532.00;5050263;27;105714;-63
2023/07/17 02:45:21;;;;;;;4.30;4.00;;;;;;;20.97;100.00;96527.03;5052931;27;105315;-62
2023/07/17 02:47:48;;;;;;;4.80;4.40;;;;;;;20.96;100.00;96530.84;5050038;27;105195;-62
2023/07/17 02:50:17;;;;;;;5.10;4.60;;;;;;;20.94;100.00;96535.78;5049479;27;105136;-62
2023/07/17 02:52:43;;;;;;;4.90;4.50;;;;;;;20.79;100.00;96534.25;5050138;27;101933;-61
2023/07/17 02:55:11;;;;;;;6.10;5.20;;;;;;;20.67;100.00;96534.03;5051483;27;102470;-62
2023/07/17 02:57:38;;;;;;;5.40;4.87;;;;;;;20.65;100.00;96538.16;5049301;27;105607;-62
2023/07/17 03:00:08;;;;;;;5.20;4.80;;;;;;;20.69;100.00;96544.53;5050433;27;102180;-62
2023/07/17 03:02:35;;;;;;;6.00;5.50;;;;;;;20.49;100.00;96551.25;5050730;27;104899;-62
2023/07/17 03:05:04;;;;;;;7.03;6.33;;;;;;;20.35;100.00;96569.44;5050142;27;104032;-62
2023/07/17 03:07:34;;;;;;;6.80;6.20;;;;;;;20.45;100.00;96571.09;5055485;27;101847;-62
2023/07/17 03:10:01;;;;;;;7.20;6.60;;;;;;;20.52;100.00;96571.44;5049980;27;103919;-62
2023/07/17 03:12:28;;;;;;;5.87;5.37;;;;;;;20.60;100.00;96551.81;5050649;27;101997;-61
2023/07/17 03:14:55;;;;;;;6.80;6.20;;;;;;;20.60;100.00;96551.81;5050524;27;105261;-61
2023/07/17 03:17:21;;;;;;;7.27;6.60;;;;;;;20.55;100.00;96543.81;5049947;27;104736;-61
2023/07/17 03:19:50;;;;;;;7.37;6.60;;;;;;;20.54;100.00;96545.72;5050560;27;102038;-61
2023/07/17 03:22:18;;;;;;;7.70;7.00;;;;;;;20.54;100.00;96547.63;5050343;27;105389;-62
2023/07/17 03:24:46;;;;;;;7.50;6.90;;;;;;;20.57;100.00;96538.91;5049682;27;104198;-61
2023/07/17 03:27:13;;;;;;;6.70;6.13;;;;;;;20.67;100.00;96541.34;5051757;27;101843;-61
2023/07/17 03:29:40;;;;;;;8.40;6.60;;;;;;;20.57;100.00;96545.13;5053023;27;104903;-62
2023/07/17 03:32:08;;;;;;;8.23;6.90;;;;;;;20.38;100.00;96549.13;5049842;27;102052;-62
2023/07/17 03:34:36;;;;;;;8.90;8.10;;;;;;;20.30;100.00;96553.38;5050370;27;104790;-62
2023/07/17 03:37:04;;;;;;;7.63;7.03;;;;;;;20.30;100.00;96558.75;5049668;27;104791;-62
2023/07/17 03:39:31;;;;;;;7.83;7.23;;;;;;;20.25;100.00;96564.28;5050069;27;101960;-62
2023/07/17 03:41:59;;;;;;;9.47;8.63;;;;;;;20.21;100.00;96557.13;5049913;27;105435;-62
2023/07/17 03:44:26;;;;;;;9.67;8.77;;;;;;;20.24;100.00;96554.59;5049314;27;105510;-62
2023/07/17 03:46:53;;;;;;;9.80;8.90;;;;;;;20.19;100.00;96551.19;5051421;27;101823;-61
2023/07/17 03:49:21;;;;;;;8.63;7.93;;;;;;;20.34;100.00;96558.94;5050163;27;104932;-61
2023/07/17 03:51:49;;;;;;;7.57;6.87;;;;;;;20.41;100.00;96554.72;5052713;27;105157;-61
2023/07/17 03:54:16;;;;;;;8.70;7.93;;;;;;;20.41;100.00;96564.69;5050012;27;105490;-61
2023/07/17 03:56:43;;;;;;;9.73;8.83;;;;;;;20.38;100.00;96565.34;5049270;27;105402;-62
2023/07/17 03:59:13;;;;;;;8.37;7.60;;;;;;;20.45;100.00;96554.88;5049734;27;101943;-62
2023/07/17 04:01:40;;;;;;;7.70;7.07;;;;;;;20.53;100.00;96540.63;5049964;27;105890;-62
2023/07/17 04:04:07;;;;;;;7.33;6.73;;;;;;;20.55;100.00;96543.81;5049193;27;105569;-62
2023/07/17 04:06:35;;;;;;;7.50;6.80;;;;;;;20.58;100.00;96545.91;5049981;27;101917;-62
2023/07/17 04:09:02;;;;;;;9.17;8.27;;;;;;;20.56;100.00;96550.81;5049761;27;103794;-62
2023/07/17 04:11:29;;;;;;;8.57;7.77;;;;;;;20.55;100.00;96554.63;5049153;27;105353;-62
2023/07/17 04:13:56;;;;;;;8.13;7.53;;;;;;;20.59;100.00;96556.41;5053035;27;102024;-62
2023/07/17 04:16:26;;;;;;;8.40;7.60;;;;;;;20.38;100.00;96559.94;5049058;27;105340;-62
2023/07/17 04:18:54;;;;;;;8.70;7.83;;;;;;;20.36;100.00;96562.94;5049730;27;101869;-62
2023/07/17 04:21:22;;;;;;;8.17;7.57;;;;;;;20.38;100.00;96566.13;5049602;27;105345;-62
2023/07/17 04:23:50;;;;;;;7.87;7.07;;;;;;;20.57;100.00;96574.84;5049060;27;104876;-62
2023/07/17 04:26:23;;;;;;;8.47;7.77;;;;;;;20.79;100.00;96557.78;5049706;27;101880;-62
2023/07/17 04:28:52;;;;;;;7.53;6.93;;;;;;;21.01;100.00;96560.44;5049523;27;105259;-62
2023/07/17 04:31:20;;;;;;;7.73;7.03;;;;;;;21.14;100.00;96562.28;5048985;27;104450;-62
2023/07/17 04:33:49;;;;;;;8.80;8.00;;;;;;;21.00;100.00;96556.16;5049472;27;101961;-62
2023/07/17 04:36:16;;;;;;;9.07;8.27;;;;;;;20.61;100.00;96581.19;5052297;27;105147;-62
2023/07/17 04:38:43;;;;;;;21.20;19.10;;;;;;;20.52;100.00;96601.97;5050393;27;101917;-62
2023/07/17 04:41:10;;;;;;;10.23;9.40;;;;;;;20.48;100.00;96632.63;5048218;27;105268;-62
2023/07/17 04:43:39;;;;;;;9.20;8.50;;;;;;;20.24;100.00;96653.72;5048650;27;105151;-62
2023/07/17 04:46:07;;;;;;;10.07;9.20;;;;;;;19.99;100.00;96692.84;5052823;27;102528;-63
2023/07/17 04:48:33;;;;;;;10.23;9.33;;;;;;;20.00;100.00;96705.22;5052867;27;104182;-63
2023/07/17 04:51:02;;;;;;;10.83;9.80;;;;;;;19.99;100.00;96744.13;5052231;27;105413;-63
2023/07/17 04:53:29;;;;;;;7.17;6.47;;;;;;;19.46;100.00;96736.81;5052949;27;101908;-63
2023/07/17 04:55:55;;;;;;;15.63;7.77;;;;;;;19.38;100.00;96675.47;5055508;27;103916;-64
2023/07/17 04:58:23;;;;;;;3.80;2.40;;;;;;;18.87;100.00;96675.56;5052646;27;101945;-64
2023/07/17 05:00:51;;;;;;;1.40;1.30;;;;;;;18.87;100.00;96680.94;5052584;27;105461;-64
2023/07/17 05:03:18;;;;;;;1.80;1.60;;;;;;;18.91;100.00;96670.38;5051876;27;105285;-64
2023/07/17 05:05:48;;;;;;;2.40;2.20;;;;;;;18.98;100.00;96660.81;5052509;27;101929;-64
2023/07/17 05:08:17;;;;;;;3.03;2.83;;;;;;;19.03;100.00;96682.25;5052493;27;104985;-64
2023/07/17 05:10:44;;;;;;;3.80;3.50;;;;;;;19.14;100.00;96688.28;5051696;27;104588;-64
2023/07/17 05:13:12;;;;;;;3.30;3.10;;;;;;;19.21;100.00;96700.31;5052360;27;102001;-64
2023/07/17 05:15:42;;;;;;;5.90;4.20;;;;;;;19.31;100.00;96702.03;5052231;27;105528;-64
2023/07/17 05:18:09;;;;;;;4.70;4.30;;;;;;;19.30;100.00;96722.78;5055116;27;105723;-64
2023/07/17 05:20:36;;;;;;;4.53;4.10;;;;;;;19.36;100.00;96715.44;5052446;27;105540;-64
2023/07/17 05:23:03;;;;;;;4.30;3.90;;;;;;;19.40;100.00;96719.13;5051471;27;105335;-64
2023/07/17 05:25:31;;;;;;;4.63;3.97;;;;;;;19.46;100.00;96726.81;5052173;27;101916;-64
2023/07/17 05:27:58;;;;;;;5.27;3.50;;;;;;;19.49;100.00;96730.81;5052216;27;105060;-64
2023/07/17 05:30:25;;;;;;;4.30;3.90;;;;;;;19.44;100.00;96741.69;5051350;27;105338;-64
2023/07/17 05:32:51;;;;;;;4.00;3.60;;;;;;;19.24;100.00;96745.56;5051430;27;101949;-64
2023/07/17 05:35:18;;;;;;;5.03;3.30;;;;;;;19.30;100.00;96762.47;5051232;27;104108;-64
2023/07/17 05:37:45;;;;;;;3.53;3.23;;;;;;;19.34;100.00;96776.97;5050007;27;105439;-64
2023/07/17 05:40:13;;;;;;;3.53;3.23;;;;;;;19.30;100.00;96798.31;5054672;27;101807;-63
2023/07/17 05:42:41;;;;;;;7.77;4.13;;;;;;;19.30;100.00;96819.88;5050580;27;105331;-63
2023/07/17 05:45:09;;;;;;;4.60;4.20;;;;;;;19.18;100.00;96794.47;5050733;27;102119;-64
2023/07/17 05:47:37;;;;;;;4.67;4.27;;;;;;;19.22;100.00;96790.09;5051130;27;104839;-65
2023/07/17 05:50:04;;;;;;;4.37;3.83;;;;;;;19.29;100.00;96785.13;5050466;27;104989;-65
2023/07/17 05:52:31;;;;;;;4.43;3.90;;;;;;;19.38;100.00;96788.75;5050888;27;101914;-66
2023/07/17 05:54:58;;;;;;;4.13;3.73;;;;;;;19.35;100.00;96795.53;5050668;27;104988;-66
2023/07/17 05:57:25;;;;;;;4.60;4.20;;;;;;;19.57;100.00;96803.00;5050310;27;103142;-65
2023/07/17 05:59:54;;;;;;;5.57;3.80;;;;;;;19.72;100.00;96792.72;5050964;27;101858;-64
2023/07/17 06:02:21;;;;;;;4.20;3.80;;;;;;;19.93;100.00;96791.22;5054039;27;104861;-65
2023/07/17 06:04:48;;;;;;;4.83;3.70;;;;;;;20.04;100.00;96792.63;5050621;27;102484;-66
2023/07/17 06:07:14;;;;;;;4.33;3.93;;;;;;;20.06;100.00;96795.03;5052225;27;102515;-65
2023/07/17 06:09:41;;;;;;;3.93;3.37;;;;;;;19.47;100.00;96798.56;5050317;27;105312;-66
2023/07/17 06:12:08;;;;;;;3.13;2.83;;;;;;;19.30;100.00;96797.53;5050728;27;102316;-65
2023/07/17 06:14:35;;;;;;;3.47;2.77;;;;;;;19.41;100.00;96815.13;5050738;27;104915;-65
2023/07/17 06:17:04;;;;;;;3.03;2.80;;;;;;;19.46;100.00;96817.75;5051514;27;102833;-65
2023/07/17 06:19:31;;;;;;;2.80;2.70;;;;;;;19.68;100.00;96818.69;5051637;27;101892;-65
2023/07/17 06:21:58;;;;;;;3.53;2.77;;;;;;;20.04;100.00;96832.31;5050684;27;104104;-65
2023/07/17 06:24:25;;;;;;;2.77;2.57;;;;;;;20.09;100.00;96833.06;5053235;27;105348;-65
2023/07/17 06:26:52;;;;;;;3.03;2.70;;;;;;;20.13;100.00;96838.66;5050572;27;104827;-65
2023/07/17 06:29:19;;;;;;;2.53;2.33;;;;;;;19.94;100.00;96841.41;5049931;27;105502;-65
2023/07/17 06:31:46;;;;;;;2.50;2.30;;;;;;;19.88;100.00;96836.41;5050431;27;101883;-65
2023/07/17 06:34:14;;;;;;;2.30;2.20;;;;;;;20.03;100.00;96846.94;5050323;27;105242;-65
2023/07/17 06:36:41;;;;;;;2.60;2.40;;;;;;;20.19;100.00;96850.97;5049548;27;105830;-65
2023/07/17 06:39:08;;;;;;;1.93;1.83;;;;;;;20.08;100.00;96844.97;5050054;27;101953;-65
2023/07/17 06:41:35;;;;;;;2.17;2.07;;;;;;;20.00;100.00;96845.63;5050265;27;105300;-65
2023/07/17 06:44:02;;;;;;;1.80;1.70;;;;;;;19.97;100.00;96851.63;5049374;27;105146;-65
2023/07/17 06:46:28;;;;;;;2.57;1.83;;;;;;;19.97;100.00;96848.94;5053705;27;101981;-65
2023/07/17 06:48:55;;;;;;;5.43;2.40;;;;;;;20.27;100.00;96844.88;5049572;27;105875;-65
2023/07/17 06:51:23;;;;;;;1.93;1.83;;;;;;;20.30;100.00;96849.66;5050130;27;102166;-65
2023/07/17 06:53:51;;;;;;;2.10;2.00;;;;;;;20.23;100.00;96850.09;5050193;27;104949;-65
2023/07/17 06:56:17;;;;;;;1.77;1.67;;;;;;;20.24;100.00;96867.91;5049442;27;105229;-65
2023/07/17 06:58:44;;;;;;;1.70;1.60;;;;;;;20.25;100.00;96868.69;5050194;27;101880;-65
2023/07/17 07:01:11;;;;;;;1.70;1.60;;;;;;;20.37;100.00;96868.97;5051371;27;102468;-65
2023/07/17 07:03:38;;;;;;;1.93;1.60;;;;;;;20.58;100.00;96867.47;5049744;27;104155;-65
2023/07/17 07:06:05;;;;;;;2.03;1.80;;;;;;;20.68;100.00;96859.97;5053223;27;102034;-65
2023/07/17 07:08:34;;;;;;;1.70;1.60;;;;;;;20.84;100.00;96865.84;5048652;27;105825;-65
2023/07/17 07:11:03;;;;;;;2.07;1.87;;;;;;;20.97;100.00;96867.72;5049924;27;102379;-65
2023/07/17 07:13:31;;;;;;;1.87;1.77;;;;;;;21.07;100.00;96872.91;5049812;27;105360;-65
2023/07/17 07:15:58;;;;;;;2.73;1.80;;;;;;;21.24;100.00;96857.63;5050393;27;102626;-65
2023/07/17 07:18:25;;;;;;;1.77;1.67;;;;;;;21.52;100.00;96861.81;5049689;27;101997;-65
2023/07/17 07:20:52;;;;;;;2.80;1.73;;;;;;;21.57;100.00;96863.63;5049730;27;105768;-65
2023/07/17 07:23:19;;;;;;;2.87;1.40;;;;;;;21.48;100.00;96865.47;5049196;27;103038;-65
2023/07/17 07:25:48;;;;;;;1.70;1.60;;;;;;;21.33;100.00;96863.94;5049681;27;102157;-65
2023/07/17 07:28:15;;;;;;;2.00;1.90;;;;;;;21.20;100.00;96864.75;5052426;27;103640;-65
2023/07/17 07:30:42;;;;;;;3.77;1.63;;;;;;;21.25;100.00;96861.94;5049553;27;102253;-65
2023/07/17 07:33:09;;;;;;;1.67;1.57;;;;;;;21.16;100.00;96862.97;5049475;27;105050;-65
2023/07/17 07:35:36;;;;;;;2.00;1.90;;;;;;;21.30;100.00;96867.22;5048781;27;105663;-65
2023/07/17 07:38:03;;;;;;;2.03;1.93;;;;;;;21.14;100.00;96878.72;5049015;27;102041;-65
2023/07/17 07:40:30;;;;;;;2.07;1.97;;;;;;;21.23;100.00;96876.88;5050822;27;102574;-65
2023/07/17 07:42:59;;;;;;;2.20;1.80;;;;;;;21.37;100.00;96875.72;5048703;27;105854;-65
2023/07/17 07:45:26;;;;;;;4.70;2.20;;;;;;;21.26;100.00;96876.28;5049105;27;103689;-65
2023/07/17 07:47:53;;;;;;;2.20;2.00;;;;;;;21.49;100.00;96881.41;5050171;27;102316;-65
2023/07/17 07:50:20;;;;;;;2.47;2.20;;;;;;;21.47;100.00;96885.53;5053146;27;102765;-65
2023/07/17 07:52:47;;;;;;;2.20;2.00;;;;;;;21.47;100.00;96883.59;5050737;27;101756;-65
2023/07/17 07:55:14;;;;;;;2.70;1.90;;;;;;;21.52;100.00;96885.41;5049803;27;102508;-65
2023/07/17 07:57:40;;;;;;;2.10;1.90;;;;;;;21.65;100.00;96879.94;5049100;27;101920;-65
2023/07/17 08:00:11;;;;;;;1.93;1.83;;;;;;;21.48;100.00;96892.53;5049159;27;105079;-65
2023/07/17 08:02:42;;;;;;;2.90;2.37;;;;;;;21.15;100.00;96885.72;5048427;27;105584;-65
2023/07/17 08:05:09;;;;;;;2.27;2.17;;;;;;;21.38;100.00;96893.56;5048965;27;102366;-65
2023/07/17 08:07:36;;;;;;;2.10;2.00;;;;;;;22.01;100.00;96885.28;5050259;27;102429;-65
2023/07/17 08:10:04;;;;;;;2.60;2.07;;;;;;;22.21;100.00;96873.88;5048381;27;104185;-65
2023/07/17 08:12:32;;;;;;;2.83;2.57;;;;;;;22.22;100.00;96876.28;5052453;27;102027;-65
2023/07/17 08:14:59;;;;;;;2.60;2.40;;;;;;;22.45;100.00;96872.41;5048182;27;105612;-65
2023/07/17 08:17:27;;;;;;;2.63;2.43;;;;;;;22.91;100.00;96870.00;5048883;27;102013;-65
2023/07/17 08:19:54;;;;;;;2.93;2.50;;;;;;;23.25;100.00;96863.81;5048654;27;105072;-65
2023/07/17 08:22:21;;;;;;;2.57;2.37;;;;;;;23.47;100.00;96858.22;5048129;27;105361;-65
2023/07/17 08:24:48;;;;;;;2.57;2.37;;;;;;;23.70;100.00;96846.06;5050174;27;102096;-65
2023/07/17 08:27:15;;;;;;;2.80;2.60;;;;;;;23.44;100.00;96842.59;5048763;27;104856;-65
2023/07/17 08:29:42;;;;;;;2.60;2.40;;;;;;;22.96;100.00;96848.16;5048100;27;105290;-65
2023/07/17 08:32:11;;;;;;;3.17;2.97;;;;;;;22.38;100.00;96849.56;5048619;27;101917;-65
2023/07/17 08:34:39;;;;;;;2.90;2.70;;;;;;;22.50;100.00;96849.81;5051433;27;105291;-65
2023/07/17 08:37:06;;;;;;;3.40;2.90;;;;;;;22.79;100.00;96858.16;5048401;27;102255;-65
2023/07/17 08:39:33;;;;;;;3.43;2.80;;;;;;;22.98;100.00;96851.31;5049806;27;102389;-65
2023/07/17 08:42:01;;;;;;;3.67;2.80;;;;;;;23.33;100.00;96857.59;5047930;27;105401;-65
2023/07/17 08:44:30;;;;;;;3.70;2.70;;;;;;;23.48;100.00;96854.41;5048377;27;102059;-65
2023/07/17 08:46:57;;;;;;;4.07;3.03;;;;;;;23.61;100.00;96853.41;5048614;27;105298;-65
2023/07/17 08:49:27;;;;;;;3.00;2.70;;;;;;;23.44;100.00;96848.00;5047639;27;105269;-65
2023/07/17 08:51:57;;;;;;;3.40;3.10;;;;;;;23.20;100.00;96851.22;5048376;27;102074;-65
2023/07/17 08:54:24;;;;;;;3.50;3.20;;;;;;;23.70;100.00;96851.50;5048505;27;105391;-65
2023/07/17 08:56:51;;;;;;;4.43;3.37;;;;;;;24.30;100.00;96847.50;5050935;27;102281;-65
2023/07/17 08:59:20;;;;;;;3.67;2.90;;;;;;;24.42;100.00;96852.25;5048324;27;105306;-65
2023/07/17 09:01:49;;;;;;;4.10;3.33;;;;;;;24.27;100.00;96845.44;5048652;27;102826;-65
2023/07/17 09:04:16;;;;;;;3.10;2.80;;;;;;;24.49;100.00;96837.03;5048259;27;101832;-65
2023/07/17 09:06:43;;;;;;;2.97;2.70;;;;;;;25.20;100.00;96848.75;5048062;27;105003;-65
2023/07/17 09:09:11;;;;;;;3.30;3.03;;;;;;;25.41;100.00;96839.50;5047690;27;105620;-65
2023/07/17 09:11:38;;;;;;;3.27;2.90;;;;;;;25.64;100.00;96831.72;5048341;27;102035;-65
2023/07/17 09:14:08;;;;;;;2.93;2.67;;;;;;;25.75;100.00;96830.19;5048116;27;105825;-65
2023/07/17 09:16:35;;;;;;;2.90;2.70;;;;;;;25.61;100.00;96824.25;5050753;27;104168;-65
2023/07/17 09:19:02;;;;;;;3.20;2.90;;;;;;;25.42;100.00;96815.75;5049368;27;102660;-65
2023/07/17 09:21:29;;;;;;;3.00;2.70;;;;;;;25.23;100.00;96818.16;5048817;27;103307;-65
2023/07/17 09:23:56;;;;;;;3.97;3.20;;;;;;;24.95;100.00;96815.16;5048082;27;101916;-65
2023/07/17 09:26:28;;;;;;;3.90;2.77;;;;;;;24.63;100.00;96823.22;5048012;27;105115;-65
2023/07/17 09:28:56;;;;;;;3.10;2.80;;;;;;;24.07;100.00;96818.97;5047344;27;105586;-65
2023/07/17 09:31:25;;;;;;;3.57;3.27;;;;;;;24.17;100.00;96818.63;5050089;27;101817;-65
2023/07/17 09:33:52;;;;;;;3.37;3.07;;;;;;;24.35;100.00;96819.34;5051454;27;104042;-65
2023/07/17 09:36:19;;;;;;;4.50;2.90;;;;;;;24.47;100.00;96816.72;5050710;27;105504;-65
2023/07/17 09:38:50;;;;;;;4.03;2.93;;;;;;;24.78;100.00;96823.44;5054374;27;101985;-65
2023/07/17 09:41:18;;;;;;;3.20;3.00;;;;;;;24.97;100.00;96812.09;5052018;27;102590;-65
2023/07/17 09:43:53;;;;;;;5.57;3.30;;;;;;;24.70;100.00;96818.88;5051389;27;102151;-65
2023/07/17 09:46:20;;;;;;;3.90;3.07;;;;;;;24.57;100.00;96819.06;5050964;27;105084;-65
2023/07/17 09:48:47;;;;;;;3.47;3.17;;;;;;;24.77;100.00;96810.97;5051880;27;102850;-65
2023/07/17 09:51:14;;;;;;;2.90;2.70;;;;;;;24.76;100.00;96808.56;5051050;27;102012;-65
2023/07/17 09:53:41;;;;;;;4.20;3.60;;;;;;;24.57;100.00;96810.91;5052520;27;102523;-65
2023/07/17 09:56:12;;;;;;;4.03;3.67;;;;;;;24.31;100.00;96811.03;5050338;27;105423;-65
2023/07/17 09:58:44;;;;;;;4.00;3.40;;;;;;;24.91;100.00;96813.44;5052397;27;101805;-65
2023/07/17 10:01:16;;;;;;;4.60;3.00;;;;;;;25.34;100.00;96820.16;5055432;27;102405;-65
2023/07/17 10:03:46;;;;;;;3.67;3.37;;;;;;;25.37;100.00;96811.31;5050933;27;101829;-65
2023/07/17 10:06:15;;;;;;;3.90;3.50;;;;;;;25.49;100.00;96813.28;5052378;27;102354;-65
2023/07/17 10:08:46;;;;;;;3.80;3.40;;;;;;;25.79;100.00;96809.31;5051471;27;103210;-65
2023/07/17 10:11:15;;;;;;;3.80;3.40;;;;;;;26.05;100.00;96802.44;5052388;27;101877;-65
2023/07/17 10:13:44;;;;;;;4.33;3.00;;;;;;;25.74;100.00;96802.16;5050759;27;105383;-65
2023/07/17 10:16:14;;;;;;;4.03;3.20;;;;;;;25.03;100.00;96797.97;5050962;27;102693;-65
2023/07/17 10:18:49;;;;;;;6.33;3.17;;;;;;;25.50;100.00;96799.34;5051940;27;101908;-65
2023/07/17 10:21:18;;;;;;;4.20;3.47;;;;;;;26.08;100.00;96792.81;5050644;27;105184;-65
2023/07/17 10:23:46;;;;;;;4.43;3.20;;;;;;;26.31;100.00;96791.25;5054807;27;103019;-65
2023/07/17 10:26:16;;;;;;;3.67;2.70;;;;;;;26.50;100.00;96783.28;5050479;27;105196;-65
2023/07/17 10:28:48;;;;;;;3.03;2.83;;;;;;;26.28;100.00;96786.47;5051167;27;103765;-65
2023/07/17 10:31:21;;;;;;;4.07;3.00;;;;;;;25.70;100.00;96784.06;5050695;27;101870;-65
2023/07/17 10:33:52;;;;;;;3.47;2.87;;;;;;;25.55;100.00;96782.78;5050479;27;104937;-65
2023/07/17 10:36:19;;;;;;;3.33;2.60;;;;;;;25.93;100.00;96788.03;5051289;27;103175;-65
2023/07/17 10:38:53;;;;;;;3.53;2.83;;;;;;;26.74;100.00;96786.78;5049914;27;101949;-65
2023/07/17 10:41:26;;;;;;;3.00;2.70;;;;;;;26.90;100.00;96779.50;5051326;27;102806;-66
2023/07/17 10:43:55;;;;;;;4.07;2.80;;;;;;;26.49;100.00;96779.72;5050295;27;102642;-66
2023/07/17 10:46:28;;;;;;;3.40;2.43;;;;;;;26.77;100.00;96779.84;5053509;27;102013;-66
2023/07/17 10:48:56;;;;;;;3.87;2.83;;;;;;;26.74;100.00;96773.16;5049834;27;105350;-65
2023/07/17 10:51:27;;;;;;;3.83;3.00;;;;;;;26.41;100.00;96760.75;5050245;27;102460;-65
2023/07/17 10:53:56;;;;;;;3.03;2.83;;;;;;;26.36;100.00;96775.44;5050019;27;105625;-65
2023/07/17 10:56:23;;;;;;;5.00;3.07;;;;;;;25.98;100.00;96771.44;5049265;27;105395;-65
2023/07/17 10:58:51;;;;;;;3.30;3.00;;;;;;;26.33;100.00;96767.91;5049978;27;101861;-65
2023/07/17 11:01:18;;;;;;;4.27;3.03;;;;;;;26.53;100.00;96764.28;5032970;27;106425;-65
2023/07/17 11:03:47;;;;;;;2.90;2.67;;;;;;;26.07;100.00;96767.50;5049432;27;105436;-65
2023/07/17 11:06:15;;;;;;;3.30;3.00;;;;;;;25.92;100.00;96759.16;5053410;27;102065;-65
2023/07/17 11:08:42;;;;;;;3.50;3.10;;;;;;;25.73;100.00;96761.63;5049231;27;105186;-65
2023/07/17 11:11:11;;;;;;;3.13;2.93;;;;;;;26.18;100.00;96759.63;5050862;27;101929;-65
2023/07/17 11:13:38;;;;;;;2.93;2.70;;;;;;;26.91;100.00;96753.78;5049827;27;105023;-65
2023/07/17 11:16:10;;;;;;;3.53;2.97;;;;;;;26.82;100.00;96746.88;5049183;27;104018;-65
2023/07/17 11:18:49;;;;;;;4.50;2.90;;;;;;;27.37;100.00;96744.19;5049748;27;101966;-65